Saint Louis, Texas
Current Conditions -  °F | °C
As of 4:53 AM on Thursday 23 Oct 2014 (Local Time) from KTYR Reporting Station
Clear Clear  
Wind Chill: 61°   Ceiling: Unl
Heat Index: 61°   Visibility: 10mi
Dew Point: 52°   Wind: 5mph
Humidity: 72%   Direction: 110°ESE
Pressure: 30.12"   Gusts: NA
Location:  32.3248°N, 95.3025°W
Report Text: KTYR 230953Z 11004KT 10SM CLR 16/11 A3012 RMK AO2 SLP193 T01610111
Loading
Personal Weather Stations






























Interactive Weather Map New forecast layout! Learn more

10-Day Weather Forecast

Advertisements
Track Severe Weather on mobile